sensor_id;sensor_type;location;lat;lon;timestamp;temperature;humidity
3980;DHT22;2004;52.452;13.120;2023-02-17T00:05:38;8.00;99.90
3980;DHT22;2004;52.452;13.120;2023-02-17T00:13:30;8.00;99.90
3980;DHT22;2004;52.452;13.120;2023-02-17T00:21:22;8.00;99.90
3980;DHT22;2004;52.452;13.120;2023-02-17T00:29:14;7.90;99.90
3980;DHT22;2004;52.452;13.120;2023-02-17T00:37:05;7.80;99.90
3980;DHT22;2004;52.452;13.120;2023-02-17T00:44:55;7.80;99.90
3980;DHT22;2004;52.452;13.120;2023-02-17T00:52:46;7.80;99.90
3980;DHT22;2004;52.452;13.120;2023-02-17T01:00:37;7.70;99.90
3980;DHT22;2004;52.452;13.120;2023-02-17T01:08:27;7.70;99.90
3980;DHT22;2004;52.452;13.120;2023-02-17T01:16:24;7.70;99.90
3980;DHT22;2004;52.452;13.120;2023-02-17T01:24:15;7.70;99.90
3980;DHT22;2004;52.452;13.120;2023-02-17T01:32:06;7.80;99.90
3980;DHT22;2004;52.452;13.120;2023-02-17T01:39:56;7.80;99.90
3980;DHT22;2004;52.452;13.120;2023-02-17T01:47:58;7.80;99.90
3980;DHT22;2004;52.452;13.120;2023-02-17T01:55:49;7.80;99.90
3980;DHT22;2004;52.452;13.120;2023-02-17T02:03:43;7.80;99.90
3980;DHT22;2004;52.452;13.120;2023-02-17T02:11:34;7.80;99.90
3980;DHT22;2004;52.452;13.120;2023-02-17T02:20:02;7.70;99.90
3980;DHT22;2004;52.452;13.120;2023-02-17T02:36:19;7.60;99.90
3980;DHT22;2004;52.452;13.120;2023-02-17T02:44:14;7.60;99.90
3980;DHT22;2004;52.452;13.120;2023-02-17T02:52:27;7.50;99.90
3980;DHT22;2004;52.452;13.120;2023-02-17T03:08:35;7.40;99.90
3980;DHT22;2004;52.452;13.120;2023-02-17T03:16:27;7.40;99.90
3980;DHT22;2004;52.452;13.120;2023-02-17T03:24:18;7.40;99.90
3980;DHT22;2004;52.452;13.120;2023-02-17T03:32:09;7.40;99.90
3980;DHT22;2004;52.452;13.120;2023-02-17T03:39:59;7.40;99.90
3980;DHT22;2004;52.452;13.120;2023-02-17T03:47:50;7.30;99.90
3980;DHT22;2004;52.452;13.120;2023-02-17T03:55:40;7.30;99.90
3980;DHT22;2004;52.452;13.120;2023-02-17T04:03:31;7.30;99.90
3980;DHT22;2004;52.452;13.120;2023-02-17T04:11:22;7.30;99.90
3980;DHT22;2004;52.452;13.120;2023-02-17T04:19:12;7.30;99.90
3980;DHT22;2004;52.452;13.120;2023-02-17T04:27:04;7.30;99.90
3980;DHT22;2004;52.452;13.120;2023-02-17T04:34:54;7.30;99.90
3980;DHT22;2004;52.452;13.120;2023-02-17T04:42:45;7.40;99.90
3980;DHT22;2004;52.452;13.120;2023-02-17T04:50:35;7.40;99.90
3980;DHT22;2004;52.452;13.120;2023-02-17T04:58:26;7.40;99.90
3980;DHT22;2004;52.452;13.120;2023-02-17T05:06:16;7.40;99.90
3980;DHT22;2004;52.452;13.120;2023-02-17T05:14:07;7.30;99.90
3980;DHT22;2004;52.452;13.120;2023-02-17T05:21:57;7.40;99.90
3980;DHT22;2004;52.452;13.120;2023-02-17T05:29:48;7.40;99.90
3980;DHT22;2004;52.452;13.120;2023-02-17T05:37:38;7.40;99.90
3980;DHT22;2004;52.452;13.120;2023-02-17T05:45:29;7.40;99.90
3980;DHT22;2004;52.452;13.120;2023-02-17T05:53:19;7.40;99.90
3980;DHT22;2004;52.452;13.120;2023-02-17T06:01:10;7.40;99.90
3980;DHT22;2004;52.452;13.120;2023-02-17T06:09:01;7.40;99.90
3980;DHT22;2004;52.452;13.120;2023-02-17T06:16:51;7.40;99.90
3980;DHT22;2004;52.452;13.120;2023-02-17T06:24:43;7.50;99.90
3980;DHT22;2004;52.452;13.120;2023-02-17T06:32:33;7.50;99.90
3980;DHT22;2004;52.452;13.120;2023-02-17T06:40:24;7.60;99.90
3980;DHT22;2004;52.452;13.120;2023-02-17T06:48:14;7.60;99.90
3980;DHT22;2004;52.452;13.120;2023-02-17T06:56:05;7.60;99.90
3980;DHT22;2004;52.452;13.120;2023-02-17T07:03:55;7.70;99.90
3980;DHT22;2004;52.452;13.120;2023-02-17T07:11:46;7.80;99.90
3980;DHT22;2004;52.452;13.120;2023-02-17T07:19:37;7.80;99.90
3980;DHT22;2004;52.452;13.120;2023-02-17T07:27:28;7.90;99.90
3980;DHT22;2004;52.452;13.120;2023-02-17T07:35:18;7.90;99.90
3980;DHT22;2004;52.452;13.120;2023-02-17T07:43:09;8.00;99.90
3980;DHT22;2004;52.452;13.120;2023-02-17T07:51:07;8.10;99.90
3980;DHT22;2004;52.452;13.120;2023-02-17T07:58:58;8.20;99.90
3980;DHT22;2004;52.452;13.120;2023-02-17T08:06:48;8.20;99.90
3980;DHT22;2004;52.452;13.120;2023-02-17T08:14:39;8.30;99.90
3980;DHT22;2004;52.452;13.120;2023-02-17T08:22:30;8.40;99.90
3980;DHT22;2004;52.452;13.120;2023-02-17T08:30:20;8.40;99.90
3980;DHT22;2004;52.452;13.120;2023-02-17T08:38:11;8.40;99.90
3980;DHT22;2004;52.452;13.120;2023-02-17T08:46:07;8.50;99.90
3980;DHT22;2004;52.452;13.120;2023-02-17T08:53:59;8.50;99.90
3980;DHT22;2004;52.452;13.120;2023-02-17T09:01:52;8.60;99.90
3980;DHT22;2004;52.452;13.120;2023-02-17T09:09:43;8.60;99.90
3980;DHT22;2004;52.452;13.120;2023-02-17T09:17:37;8.60;99.90
3980;DHT22;2004;52.452;13.120;2023-02-17T09:25:29;8.60;99.90
3980;DHT22;2004;52.452;13.120;2023-02-17T09:33:19;8.70;99.90
3980;DHT22;2004;52.452;13.120;2023-02-17T09:41:33;8.70;99.90
3980;DHT22;2004;52.452;13.120;2023-02-17T09:49:32;8.80;99.90
3980;DHT22;2004;52.452;13.120;2023-02-17T09:57:27;8.80;99.90
3980;DHT22;2004;52.452;13.120;2023-02-17T10:05:21;8.90;99.90
3980;DHT22;2004;52.452;13.120;2023-02-17T10:13:15;8.90;99.90
3980;DHT22;2004;52.452;13.120;2023-02-17T10:21:10;8.90;99.90
3980;DHT22;2004;52.452;13.120;2023-02-17T10:29:10;9.00;99.90
3980;DHT22;2004;52.452;13.120;2023-02-17T10:37:14;9.00;99.90
3980;DHT22;2004;52.452;13.120;2023-02-17T10:53:22;9.10;99.90
3980;DHT22;2004;52.452;13.120;2023-02-17T11:01:14;9.20;99.90
3980;DHT22;2004;52.452;13.120;2023-02-17T11:09:15;9.20;99.90
3980;DHT22;2004;52.452;13.120;2023-02-17T11:17:13;9.30;99.90
3980;DHT22;2004;52.452;13.120;2023-02-17T11:25:20;9.30;99.90
3980;DHT22;2004;52.452;13.120;2023-02-17T11:33:19;9.40;99.90
3980;DHT22;2004;52.452;13.120;2023-02-17T11:41:11;9.50;99.90
3980;DHT22;2004;52.452;13.120;2023-02-17T11:49:10;9.50;99.90
3980;DHT22;2004;52.452;13.120;2023-02-17T11:57:30;9.60;99.90
3980;DHT22;2004;52.452;13.120;2023-02-17T12:05:36;9.70;99.90
3980;DHT22;2004;52.452;13.120;2023-02-17T12:21:48;10.00;99.90
3980;DHT22;2004;52.452;13.120;2023-02-17T12:38:14;10.40;99.90
3980;DHT22;2004;52.452;13.120;2023-02-17T12:46:10;10.50;99.90
3980;DHT22;2004;52.452;13.120;2023-02-17T12:54:03;10.80;99.90
3980;DHT22;2004;52.452;13.120;2023-02-17T13:02:11;10.90;99.90
3980;DHT22;2004;52.452;13.120;2023-02-17T13:10:02;11.00;99.90
3980;DHT22;2004;52.452;13.120;2023-02-17T13:17:58;11.10;99.90
3980;DHT22;2004;52.452;13.120;2023-02-17T13:34:07;11.50;99.90
3980;DHT22;2004;52.452;13.120;2023-02-17T13:41:59;11.60;99.90
3980;DHT22;2004;52.452;13.120;2023-02-17T13:49:53;11.70;99.90
3980;DHT22;2004;52.452;13.120;2023-02-17T13:57:43;11.80;99.90
3980;DHT22;2004;52.452;13.120;2023-02-17T14:05:37;11.80;99.90
3980;DHT22;2004;52.452;13.120;2023-02-17T14:13:29;11.90;99.90
3980;DHT22;2004;52.452;13.120;2023-02-17T14:21:25;12.00;99.90
3980;DHT22;2004;52.452;13.120;2023-02-17T14:29:16;12.10;99.90
3980;DHT22;2004;52.452;13.120;2023-02-17T14:37:17;12.20;99.90
3980;DHT22;2004;52.452;13.120;2023-02-17T14:45:10;12.30;99.90
3980;DHT22;2004;52.452;13.120;2023-02-17T14:53:01;12.30;99.90
3980;DHT22;2004;52.452;13.120;2023-02-17T15:00:51;12.10;99.90
3980;DHT22;2004;52.452;13.120;2023-02-17T15:08:43;11.70;99.90
3980;DHT22;2004;52.452;13.120;2023-02-17T15:16:35;11.50;99.90
3980;DHT22;2004;52.452;13.120;2023-02-17T15:24:26;11.30;99.90
3980;DHT22;2004;52.452;13.120;2023-02-17T15:32:18;11.20;99.90
3980;DHT22;2004;52.452;13.120;2023-02-17T15:40:20;11.20;99.90
3980;DHT22;2004;52.452;13.120;2023-02-17T15:56:16;11.10;99.90
3980;DHT22;2004;52.452;13.120;2023-02-17T16:04:13;11.10;99.90
3980;DHT22;2004;52.452;13.120;2023-02-17T16:12:04;11.10;99.90
3980;DHT22;2004;52.452;13.120;2023-02-17T16:19:55;11.20;99.90
3980;DHT22;2004;52.452;13.120;2023-02-17T16:27:47;11.20;99.90
3980;DHT22;2004;52.452;13.120;2023-02-17T16:35:40;11.30;99.90
3980;DHT22;2004;52.452;13.120;2023-02-17T16:43:32;11.40;99.90
3980;DHT22;2004;52.452;13.120;2023-02-17T16:51:23;11.60;99.90
3980;DHT22;2004;52.452;13.120;2023-02-17T16:59:16;11.60;99.90
3980;DHT22;2004;52.452;13.120;2023-02-17T17:07:11;11.60;99.90
3980;DHT22;2004;52.452;13.120;2023-02-17T17:15:03;11.40;99.90
3980;DHT22;2004;52.452;13.120;2023-02-17T17:22:53;11.20;99.90
3980;DHT22;2004;52.452;13.120;2023-02-17T17:30:44;11.20;99.90
3980;DHT22;2004;52.452;13.120;2023-02-17T17:38:36;11.20;99.90
3980;DHT22;2004;52.452;13.120;2023-02-17T17:46:30;11.20;99.90
3980;DHT22;2004;52.452;13.120;2023-02-17T17:54:20;11.30;99.90
3980;DHT22;2004;52.452;13.120;2023-02-17T18:02:11;11.30;99.90
3980;DHT22;2004;52.452;13.120;2023-02-17T18:10:05;11.40;99.90
3980;DHT22;2004;52.452;13.120;2023-02-17T18:17:56;11.50;99.90
3980;DHT22;2004;52.452;13.120;2023-02-17T18:25:47;11.50;99.90
3980;DHT22;2004;52.452;13.120;2023-02-17T18:33:38;11.50;99.90
3980;DHT22;2004;52.452;13.120;2023-02-17T18:41:30;11.40;99.90
3980;DHT22;2004;52.452;13.120;2023-02-17T18:49:22;11.20;99.90
3980;DHT22;2004;52.452;13.120;2023-02-17T18:57:12;11.00;99.90
3980;DHT22;2004;52.452;13.120;2023-02-17T19:05:04;10.90;99.90
3980;DHT22;2004;52.452;13.120;2023-02-17T19:12:55;10.80;99.90
3980;DHT22;2004;52.452;13.120;2023-02-17T19:20:45;10.70;99.90
3980;DHT22;2004;52.452;13.120;2023-02-17T19:28:37;10.70;99.90
3980;DHT22;2004;52.452;13.120;2023-02-17T19:36:28;10.60;96.30
3980;DHT22;2004;52.452;13.120;2023-02-17T19:44:18;10.40;92.50
3980;DHT22;2004;52.452;13.120;2023-02-17T19:52:09;10.20;92.40
3980;DHT22;2004;52.452;13.120;2023-02-17T19:59:59;10.00;90.90
3980;DHT22;2004;52.452;13.120;2023-02-17T20:07:50;9.80;91.20
3980;DHT22;2004;52.452;13.120;2023-02-17T20:15:41;9.60;91.60
3980;DHT22;2004;52.452;13.120;2023-02-17T20:23:32;9.50;92.60
3980;DHT22;2004;52.452;13.120;2023-02-17T20:31:23;9.40;93.70
3980;DHT22;2004;52.452;13.120;2023-02-17T20:39:13;9.20;95.40
3980;DHT22;2004;52.452;13.120;2023-02-17T20:47:04;9.10;97.20
3980;DHT22;2004;52.452;13.120;2023-02-17T20:54:54;9.00;97.50
3980;DHT22;2004;52.452;13.120;2023-02-17T21:02:45;8.90;97.80
3980;DHT22;2004;52.452;13.120;2023-02-17T21:10:35;8.80;98.00
3980;DHT22;2004;52.452;13.120;2023-02-17T21:18:29;8.70;99.10
3980;DHT22;2004;52.452;13.120;2023-02-17T21:26:19;8.60;99.20
3980;DHT22;2004;52.452;13.120;2023-02-17T21:34:10;8.50;99.90
3980;DHT22;2004;52.452;13.120;2023-02-17T21:42:00;8.40;99.90
3980;DHT22;2004;52.452;13.120;2023-02-17T21:49:52;8.30;99.90
3980;DHT22;2004;52.452;13.120;2023-02-17T21:57:43;8.20;99.90
3980;DHT22;2004;52.452;13.120;2023-02-17T22:05:34;8.10;99.90
3980;DHT22;2004;52.452;13.120;2023-02-17T22:13:24;8.00;99.90
3980;DHT22;2004;52.452;13.120;2023-02-17T22:21:15;7.90;99.90
3980;DHT22;2004;52.452;13.120;2023-02-17T22:29:06;7.80;99.90
3980;DHT22;2004;52.452;13.120;2023-02-17T22:36:57;7.80;99.90
3980;DHT22;2004;52.452;13.120;2023-02-17T22:44:47;7.70;99.90
3980;DHT22;2004;52.452;13.120;2023-02-17T22:52:38;7.70;99.90
3980;DHT22;2004;52.452;13.120;2023-02-17T23:00:29;7.70;99.90
3980;DHT22;2004;52.452;13.120;2023-02-17T23:08:19;7.60;99.90
3980;DHT22;2004;52.452;13.120;2023-02-17T23:16:16;7.60;99.90
3980;DHT22;2004;52.452;13.120;2023-02-17T23:24:07;7.50;99.90
3980;DHT22;2004;52.452;13.120;2023-02-17T23:31:58;7.40;99.90
3980;DHT22;2004;52.452;13.120;2023-02-17T23:39:48;7.40;99.90
3980;DHT22;2004;52.452;13.120;2023-02-17T23:47:39;7.40;99.90
3980;DHT22;2004;52.452;13.120;2023-02-17T23:55:29;7.40;99.90
